Terminal Aerodrome Forecast
Issued by NWS

Home | Current Version | Previous Version | Graphics & Text | Print | Product List | Glossary On
Versions: 1 2 3 4 5 6 7 8 9 10 11 12 13 14 15 16 17 18 19
126
FTUS43 KTOP 271138
TAFMHK
TAF
KMHK 271138Z 2712/2812 02005KT 6SM BR OVC008
     FM271600 01007KT P6SM OVC012
     FM272100 02005KT P6SM SCT035=

USA.gov is the U.S. government's official web portal to all federal, state and local government web resources and services.